EJA512 CYVR-KPDX
Flight info
| Callsign | EJA512 |
|---|---|
| Flight time | N/A |
| Altitude | 35000 |
| Route | SEA DCT BUWZO KRATR2 |
| Aircraft | C25C/M-SDE2E3FGHRWXY/LB1 |
Departure
| Time | 2026-05-05 02:52 |
|---|---|
| Airport | Vancouver International Airport (CYVR) |
Arrival
| Time | N/A |
|---|---|
| Airport | Portland International Airport (KPDX) |
| Time | Latitude | Longitude | Altitude | Speed | Heading |
|---|---|---|---|---|---|
| 2026-05-05 02:33 | 49.18147 | -123.16179 | 12 ft | 0 kts | 191° |
| 2026-05-05 02:42 | 49.18144 | -123.16181 | 12 ft | 3 kts | 211° |
| 2026-05-05 02:42 | 49.18147 | -123.16258 | 12 ft | 9 kts | 307° |
| 2026-05-05 02:43 | 49.18207 | -123.16272 | 12 ft | 8 kts | 4° |
| 2026-05-05 02:43 | 49.18255 | -123.16267 | 12 ft | 5 kts | 4° |
| 2026-05-05 02:43 | 49.18263 | -123.16266 | 12 ft | 0 kts | 5° |
| 2026-05-05 02:46 | 49.18278 | -123.16264 | 12 ft | 2 kts | 6° |
| 2026-05-05 02:46 | 49.18280 | -123.16264 | 12 ft | 0 kts | 5° |
| 2026-05-05 02:50 | 49.18294 | -123.16262 | 12 ft | 11 kts | 5° |
| 2026-05-05 02:50 | 49.18390 | -123.16249 | 12 ft | 15 kts | 4° |
| 2026-05-05 02:51 | 49.18490 | -123.16267 | 12 ft | 14 kts | 307° |
| 2026-05-05 02:51 | 49.18546 | -123.16756 | 9 ft | 103 kts | 279° |
| 2026-05-05 02:51 | 49.18722 | -123.18404 | 60 ft | 208 kts | 278° |
| 2026-05-05 02:51 | 49.18975 | -123.21018 | 503 ft | 279 kts | 276° |
| 2026-05-05 02:52 | 49.19409 | -123.23746 | 2824 ft | 237 kts | 298° |
| 2026-05-05 02:52 | 49.20271 | -123.25759 | 4847 ft | 258 kts | 254° |
| 2026-05-05 02:52 | 49.18232 | -123.26449 | 3348 ft | 344 kts | 182° |
| 2026-05-05 02:52 | 49.16026 | -123.26404 | 4444 ft | 284 kts | 181° |
| 2026-05-05 02:53 | 49.14092 | -123.26336 | 4667 ft | 298 kts | 176° |
| 2026-05-05 02:53 | 49.11954 | -123.25892 | 5157 ft | 306 kts | 173° |
| 2026-05-05 02:53 | 49.10105 | -123.25511 | 7555 ft | 238 kts | 174° |
| 2026-05-05 02:53 | 49.08520 | -123.25438 | 9346 ft | 236 kts | 180° |
| 2026-05-05 02:54 | 49.06640 | -123.25422 | 9459 ft | 305 kts | 179° |
| 2026-05-05 02:54 | 49.04418 | -123.25400 | 10509 ft | 325 kts | 180° |
| 2026-05-05 02:54 | 49.02121 | -123.25660 | 12002 ft | 325 kts | 187° |
| 2026-05-05 02:54 | 49.00032 | -123.26300 | 14306 ft | 297 kts | 198° |
| 2026-05-05 02:55 | 48.98100 | -123.27519 | 15548 ft | 318 kts | 208° |
| 2026-05-05 02:55 | 48.95798 | -123.28798 | 15475 ft | 378 kts | 193° |
| 2026-05-05 02:55 | 48.93168 | -123.29016 | 16819 ft | 376 kts | 174° |
| 2026-05-05 02:55 | 48.90662 | -123.28590 | 18963 ft | 341 kts | 174° |
| 2026-05-05 02:56 | 48.88383 | -123.28439 | 21100 ft | 321 kts | 179° |
| 2026-05-05 02:56 | 48.85988 | -123.28353 | 21466 ft | 364 kts | 178° |
| 2026-05-05 02:56 | 48.83413 | -123.28238 | 22453 ft | 375 kts | 177° |
| 2026-05-05 02:56 | 48.80777 | -123.27940 | 23377 ft | 386 kts | 172° |
| 2026-05-05 02:57 | 48.78149 | -123.27118 | 24141 ft | 394 kts | 161° |
| 2026-05-05 02:57 | 48.75533 | -123.25607 | 24607 ft | 412 kts | 156° |
| 2026-05-05 02:57 | 48.72873 | -123.23946 | 25856 ft | 399 kts | 153° |
| 2026-05-05 02:57 | 48.70444 | -123.22297 | 27542 ft | 378 kts | 153° |
| 2026-05-05 02:58 | 48.68022 | -123.20689 | 28378 ft | 389 kts | 155° |
| 2026-05-05 02:58 | 48.65334 | -123.19351 | 28052 ft | 428 kts | 164° |
| 2026-05-05 02:58 | 48.62377 | -123.18063 | 28582 ft | 434 kts | 157° |
| 2026-05-05 02:58 | 48.59820 | -123.15957 | 30155 ft | 413 kts | 147° |
| 2026-05-05 02:59 | 48.57115 | -123.14621 | 30864 ft | 421 kts | 172° |
| 2026-05-05 02:59 | 48.54127 | -123.14283 | 31101 ft | 437 kts | 175° |
| 2026-05-05 02:59 | 48.51108 | -123.14074 | 31894 ft | 432 kts | 178° |
| 2026-05-05 02:59 | 48.48082 | -123.13648 | 32207 ft | 443 kts | 172° |
| 2026-05-05 03:00 | 48.45011 | -123.12993 | 32784 ft | 443 kts | 169° |
| 2026-05-05 03:00 | 48.42027 | -123.12035 | 33710 ft | 435 kts | 164° |
| 2026-05-05 03:00 | 48.39076 | -123.11114 | 34357 ft | 434 kts | 169° |
| 2026-05-05 03:00 | 48.36052 | -123.10492 | 34564 ft | 443 kts | 168° |
| 2026-05-05 03:01 | 48.32937 | -123.09943 | 34510 ft | 459 kts | 174° |
| 2026-05-05 03:01 | 48.29706 | -123.09436 | 34418 ft | 473 kts | 173° |
| 2026-05-05 03:01 | 48.26430 | -123.08841 | 34765 ft | 472 kts | 169° |
| 2026-05-05 03:01 | 48.23221 | -123.08173 | 35625 ft | 458 kts | 171° |
| 2026-05-05 03:02 | 48.20093 | -123.07488 | 36095 ft | 457 kts | 168° |
| 2026-05-05 03:02 | 48.16946 | -123.06434 | 35990 ft | 468 kts | 163° |
| 2026-05-05 03:02 | 48.13724 | -123.05339 | 35852 ft | 481 kts | 168° |
| 2026-05-05 03:02 | 48.10424 | -123.04564 | 35723 ft | 491 kts | 169° |
| 2026-05-05 03:03 | 48.07007 | -123.03900 | 35604 ft | 499 kts | 173° |